Decoded Metar for YBBN (BRISBANE in AUSTRALIA) (IATA:BNE) | Meteo·Mobile Aviation Weather
aviador You're here:

YBBN Decoded Metar

BRISBANE in AUSTRALIA
Report Time2019-02-16 00:30:00
UTC Time2019-02-16 00:58:16
Flight Rules vfr VFR
Wind130° at 11 kt
W.Decomp.*RWY 14: 10.3 kt HW 3.9 kt LCW
RWY 19: 3.6 kt HW 10.4 kt LCW
W.Rank130° ranks 10
Current wind is above 130° avg. (8.2)
Visibility9999 m
Phenomena:N/A
Clouds:Few 045 Hf
Scattered 053 Hf
Expected CloudBase > 5,200 ft AGL from Temp-Dew spread
CeilingNone
Temp28°C (ISA +13)
Dew Point15°C (45% RH)
Heat Index28.0°C
AAT25.6°C
QNH1017 hPa
Density Alt1,611 ft
Elevation16 ft
Report Wrong Elevation
Raw Report
METAR YBBN 160030Z 13011KT 9999 FEW045 SCT053 28/15 Q1017 NOSIG=

Extra information for YBBN:More info

Metar Taf Metar & Taf Last 4 Metars F.Rules Stats Wind Profile Meteogram Temp Stats Airport Information Weather charts Add Link Nearby VenuesMetar ALERT Operation Metar Decoded Social comments